sensor_id;sensor_type;location;lat;lon;timestamp;pressure;altitude;pressure_sealevel;temperature;humidity
46045;BME280;31781;54.094;13.428;2023-02-14T00:01:06;103794.22;;;6.51;67.71
46045;BME280;31781;54.094;13.428;2023-02-14T00:03:09;103788.06;;;6.49;67.79
46045;BME280;31781;54.094;13.428;2023-02-14T00:05:11;103791.50;;;6.51;68.08
46045;BME280;31781;54.094;13.428;2023-02-14T00:07:13;103791.50;;;6.51;68.15
46045;BME280;31781;54.094;13.428;2023-02-14T00:09:16;103787.19;;;6.49;67.77
46045;BME280;31781;54.094;13.428;2023-02-14T00:11:19;103790.66;;;6.51;67.74
46045;BME280;31781;54.094;13.428;2023-02-14T00:13:21;103789.81;;;6.50;67.52
46045;BME280;31781;54.094;13.428;2023-02-14T00:15:22;103787.09;;;6.50;68.13
46045;BME280;31781;54.094;13.428;2023-02-14T00:17:24;103795.22;;;6.50;68.01
46045;BME280;31781;54.094;13.428;2023-02-14T00:19:27;103782.66;;;6.49;68.10
46045;BME280;31781;54.094;13.428;2023-02-14T00:21:29;103795.31;;;6.49;68.11
46045;BME280;31781;54.094;13.428;2023-02-14T00:23:31;103796.19;;;6.49;67.57
46045;BME280;31781;54.094;13.428;2023-02-14T00:25:32;103789.81;;;6.50;68.33
46045;BME280;31781;54.094;13.428;2023-02-14T00:27:34;103786.31;;;6.48;68.01
46045;BME280;31781;54.094;13.428;2023-02-14T00:29:36;103791.66;;;6.50;67.83
46045;BME280;31781;54.094;13.428;2023-02-14T00:31:39;103791.66;;;6.50;67.74
46045;BME280;31781;54.094;13.428;2023-02-14T00:33:40;103795.22;;;6.50;68.14
46045;BME280;31781;54.094;13.428;2023-02-14T00:35:43;103799.63;;;6.51;67.96
46045;BME280;31781;54.094;13.428;2023-02-14T00:37:45;103785.47;;;6.48;67.91
46045;BME280;31781;54.094;13.428;2023-02-14T00:39:47;103795.22;;;6.50;67.65
46045;BME280;31781;54.094;13.428;2023-02-14T00:41:49;103794.34;;;6.50;68.10
46045;BME280;31781;54.094;13.428;2023-02-14T00:43:52;103796.19;;;6.49;67.67
46045;BME280;31781;54.094;13.428;2023-02-14T00:45:54;103805.16;;;6.50;67.79
46045;BME280;31781;54.094;13.428;2023-02-14T00:47:56;103803.34;;;6.50;67.78
46045;BME280;31781;54.094;13.428;2023-02-14T00:49:58;103798.75;;;6.51;68.02
46045;BME280;31781;54.094;13.428;2023-02-14T00:52:02;103797.91;;;6.50;67.60
46045;BME280;31781;54.094;13.428;2023-02-14T00:54:03;103791.66;;;6.50;67.89
46045;BME280;31781;54.094;13.428;2023-02-14T00:56:05;103790.78;;;6.49;67.84
46045;BME280;31781;54.094;13.428;2023-02-14T00:58:07;103790.78;;;6.49;67.60
46045;BME280;31781;54.094;13.428;2023-02-14T01:00:10;103788.06;;;6.49;68.25
46045;BME280;31781;54.094;13.428;2023-02-14T01:02:12;103795.31;;;6.49;67.68
46045;BME280;31781;54.094;13.428;2023-02-14T01:04:13;103795.31;;;6.49;67.53
46045;BME280;31781;54.094;13.428;2023-02-14T01:06:16;103796.19;;;6.49;68.23
46045;BME280;31781;54.094;13.428;2023-02-14T01:08:21;103797.06;;;6.50;67.80
46045;BME280;31781;54.094;13.428;2023-02-14T01:10:23;103796.19;;;6.49;67.60
46045;BME280;31781;54.094;13.428;2023-02-14T01:12:25;103793.47;;;6.49;68.17
46045;BME280;31781;54.094;13.428;2023-02-14T01:14:28;103798.88;;;6.49;67.90
46045;BME280;31781;54.094;13.428;2023-02-14T01:16:30;103794.44;;;6.48;67.99
46045;BME280;31781;54.094;13.428;2023-02-14T01:18:31;103787.19;;;6.49;67.75
46045;BME280;31781;54.094;13.428;2023-02-14T01:20:33;103779.97;;;6.49;67.71
46045;BME280;31781;54.094;13.428;2023-02-14T01:22:35;103780.81;;;6.50;67.82
46045;BME280;31781;54.094;13.428;2023-02-14T01:24:38;103782.53;;;6.51;67.94
46045;BME280;31781;54.094;13.428;2023-02-14T01:26:40;103784.41;;;6.50;67.94
46045;BME280;31781;54.094;13.428;2023-02-14T01:28:43;103772.72;;;6.50;67.96
46045;BME280;31781;54.094;13.428;2023-02-14T01:30:45;103773.59;;;6.50;67.91
46045;BME280;31781;54.094;13.428;2023-02-14T01:32:47;103774.53;;;6.49;67.69
46045;BME280;31781;54.094;13.428;2023-02-14T01:34:48;103770.00;;;6.50;68.05
46045;BME280;31781;54.094;13.428;2023-02-14T01:36:50;103775.41;;;6.50;67.88
46045;BME280;31781;54.094;13.428;2023-02-14T01:38:53;103777.25;;;6.49;68.02
46045;BME280;31781;54.094;13.428;2023-02-14T01:40:57;103766.44;;;6.49;67.60
46045;BME280;31781;54.094;13.428;2023-02-14T01:43:00;103774.41;;;6.51;67.56
46045;BME280;31781;54.094;13.428;2023-02-14T01:45:04;103776.28;;;6.50;67.62
46045;BME280;31781;54.094;13.428;2023-02-14T01:47:07;103780.81;;;6.50;67.70
46045;BME280;31781;54.094;13.428;2023-02-14T01:49:13;103776.38;;;6.49;68.22
46045;BME280;31781;54.094;13.428;2023-02-14T01:51:17;103775.50;;;6.48;67.82
46045;BME280;31781;54.094;13.428;2023-02-14T01:53:23;103777.34;;;6.48;68.13
46045;BME280;31781;54.094;13.428;2023-02-14T01:55:29;103777.34;;;6.48;68.06
46045;BME280;31781;54.094;13.428;2023-02-14T01:57:35;103773.78;;;6.47;67.60
46045;BME280;31781;54.094;13.428;2023-02-14T01:59:42;103773.91;;;6.46;68.22
46045;BME280;31781;54.094;13.428;2023-02-14T02:01:48;103783.84;;;6.45;67.74
46045;BME280;31781;54.094;13.428;2023-02-14T02:03:53;103783.75;;;6.47;68.25
46045;BME280;31781;54.094;13.428;2023-02-14T02:06:00;103781.03;;;6.47;68.28
46045;BME280;31781;54.094;13.428;2023-02-14T02:08:03;103776.59;;;6.46;68.26
46045;BME280;31781;54.094;13.428;2023-02-14T02:10:07;103772.16;;;6.45;67.54
46045;BME280;31781;54.094;13.428;2023-02-14T02:12:09;103768.59;;;6.44;67.99
46045;BME280;31781;54.094;13.428;2023-02-14T02:14:16;103773.91;;;6.46;68.13
46045;BME280;31781;54.094;13.428;2023-02-14T02:16:39;103764.91;;;6.45;68.30
46045;BME280;31781;54.094;13.428;2023-02-14T02:18:55;103764.03;;;6.45;67.99
46045;BME280;31781;54.094;13.428;2023-02-14T02:21:29;103765.78;;;6.46;67.90
46045;BME280;31781;54.094;13.428;2023-02-14T02:24:03;103757.75;;;6.44;68.15
46045;BME280;31781;54.094;13.428;2023-02-14T02:26:33;103769.56;;;6.43;68.25
46045;BME280;31781;54.094;13.428;2023-02-14T02:31:41;103768.81;;;6.41;68.23
46045;BME280;31781;54.094;13.428;2023-02-14T02:34:09;103766.19;;;6.40;67.59
46045;BME280;31781;54.094;13.428;2023-02-14T02:36:45;103758.94;;;6.40;67.95
46045;BME280;31781;54.094;13.428;2023-02-14T02:39:02;103764.50;;;6.39;67.77
46045;BME280;31781;54.094;13.428;2023-02-14T02:41:11;103770.00;;;6.37;67.96
46045;BME280;31781;54.094;13.428;2023-02-14T02:43:28;103764.59;;;6.37;67.64
46045;BME280;31781;54.094;13.428;2023-02-14T02:45:40;103765.44;;;6.38;68.13
46045;BME280;31781;54.094;13.428;2023-02-14T02:47:54;103759.09;;;6.39;67.50
46045;BME280;31781;54.094;13.428;2023-02-14T02:50:06;103761.00;;;6.36;68.00
46045;BME280;31781;54.094;13.428;2023-02-14T02:52:18;103760.13;;;6.36;68.28
46045;BME280;31781;54.094;13.428;2023-02-14T02:54:28;103755.59;;;6.36;67.77
46045;BME280;31781;54.094;13.428;2023-02-14T02:56:36;103752.03;;;6.36;68.00
46045;BME280;31781;54.094;13.428;2023-02-14T02:58:45;103760.13;;;6.36;67.88
46045;BME280;31781;54.094;13.428;2023-02-14T03:00:50;103757.44;;;6.36;68.04
46045;BME280;31781;54.094;13.428;2023-02-14T03:02:55;103762.00;;;6.35;68.16
46045;BME280;31781;54.094;13.428;2023-02-14T03:05:01;103770.00;;;6.37;67.93
46045;BME280;31781;54.094;13.428;2023-02-14T03:07:07;103779.94;;;6.36;68.42
46045;BME280;31781;54.094;13.428;2023-02-14T03:09:12;103768.16;;;6.38;68.25
46045;BME280;31781;54.094;13.428;2023-02-14T03:11:14;103762.00;;;6.35;67.82
46045;BME280;31781;54.094;13.428;2023-02-14T03:13:40;103761.78;;;6.39;67.65
46045;BME280;31781;54.094;13.428;2023-02-14T03:15:51;103760.03;;;6.38;68.23
46045;BME280;31781;54.094;13.428;2023-02-14T03:18:01;103759.31;;;6.35;68.04
46045;BME280;31781;54.094;13.428;2023-02-14T03:20:13;103763.63;;;6.38;67.97
46045;BME280;31781;54.094;13.428;2023-02-14T03:22:21;103763.72;;;6.36;67.73
46045;BME280;31781;54.094;13.428;2023-02-14T03:24:38;103761.00;;;6.36;67.58
46045;BME280;31781;54.094;13.428;2023-02-14T03:26:47;103758.44;;;6.35;67.64
46045;BME280;31781;54.094;13.428;2023-02-14T03:28:54;103762.00;;;6.35;67.37
46045;BME280;31781;54.094;13.428;2023-02-14T03:31:02;103770.13;;;6.35;67.69
46045;BME280;31781;54.094;13.428;2023-02-14T03:33:12;103772.81;;;6.35;67.92
46045;BME280;31781;54.094;13.428;2023-02-14T03:35:22;103771.97;;;6.35;68.32
46045;BME280;31781;54.094;13.428;2023-02-14T03:37:31;103771.09;;;6.34;67.89
46045;BME280;31781;54.094;13.428;2023-02-14T03:39:41;103772.06;;;6.33;68.02
46045;BME280;31781;54.094;13.428;2023-02-14T03:41:49;103777.38;;;6.35;67.87
46045;BME280;31781;54.094;13.428;2023-02-14T03:43:54;103773.88;;;6.33;67.98
46045;BME280;31781;54.094;13.428;2023-02-14T03:46:02;103778.41;;;6.32;67.66
46045;BME280;31781;54.094;13.428;2023-02-14T03:48:07;103786.44;;;6.34;67.69
46045;BME280;31781;54.094;13.428;2023-02-14T03:50:14;103779.28;;;6.33;68.17
46045;BME280;31781;54.094;13.428;2023-02-14T03:52:17;103774.00;;;6.31;67.83
46045;BME280;31781;54.094;13.428;2023-02-14T03:54:24;103773.88;;;6.33;67.60
46045;BME280;31781;54.094;13.428;2023-02-14T03:56:31;103773.00;;;6.32;68.13
46045;BME280;31781;54.094;13.428;2023-02-14T03:58:36;103778.41;;;6.32;68.04
46045;BME280;31781;54.094;13.428;2023-02-14T04:00:40;103778.53;;;6.31;68.02
46045;BME280;31781;54.094;13.428;2023-02-14T04:02:45;103777.56;;;6.32;68.35
46045;BME280;31781;54.094;13.428;2023-02-14T04:04:50;103778.53;;;6.31;67.40
46045;BME280;31781;54.094;13.428;2023-02-14T04:06:53;103779.41;;;6.31;68.04
46045;BME280;31781;54.094;13.428;2023-02-14T04:08:55;103777.69;;;6.30;67.91
46045;BME280;31781;54.094;13.428;2023-02-14T04:10:59;103780.38;;;6.30;67.55
46045;BME280;31781;54.094;13.428;2023-02-14T04:13:03;103776.81;;;6.30;67.99
46045;BME280;31781;54.094;13.428;2023-02-14T04:15:05;103778.63;;;6.29;68.00
46045;BME280;31781;54.094;13.428;2023-02-14T04:17:07;103779.50;;;6.30;67.99
46045;BME280;31781;54.094;13.428;2023-02-14T04:19:09;103780.47;;;6.29;67.94
46045;BME280;31781;54.094;13.428;2023-02-14T04:21:11;103778.78;;;6.28;67.88
46045;BME280;31781;54.094;13.428;2023-02-14T04:23:12;103785.00;;;6.28;67.97
46045;BME280;31781;54.094;13.428;2023-02-14T04:25:15;103787.72;;;6.28;68.26
46045;BME280;31781;54.094;13.428;2023-02-14T04:27:16;103783.19;;;6.29;68.35
46045;BME280;31781;54.094;13.428;2023-02-14T04:29:20;103786.88;;;6.28;67.76
46045;BME280;31781;54.094;13.428;2023-02-14T04:31:21;103787.84;;;6.27;67.53
46045;BME280;31781;54.094;13.428;2023-02-14T04:33:24;103789.59;;;6.28;68.20
46045;BME280;31781;54.094;13.428;2023-02-14T04:35:27;103781.56;;;6.26;67.83
46045;BME280;31781;54.094;13.428;2023-02-14T04:37:28;103787.84;;;6.27;67.75
46045;BME280;31781;54.094;13.428;2023-02-14T04:39:30;103782.44;;;6.27;67.80
46045;BME280;31781;54.094;13.428;2023-02-14T04:41:34;103781.56;;;6.26;67.69
46045;BME280;31781;54.094;13.428;2023-02-14T04:43:36;103782.53;;;6.25;67.73
46045;BME280;31781;54.094;13.428;2023-02-14T04:45:39;103791.50;;;6.26;68.13
46045;BME280;31781;54.094;13.428;2023-02-14T04:47:40;103785.22;;;6.25;67.70
46045;BME280;31781;54.094;13.428;2023-02-14T04:49:42;103773.56;;;6.25;67.64
46045;BME280;31781;54.094;13.428;2023-02-14T04:51:44;103782.53;;;6.25;67.64
46045;BME280;31781;54.094;13.428;2023-02-14T04:53:45;103785.22;;;6.25;68.20
46045;BME280;31781;54.094;13.428;2023-02-14T04:55:48;103775.41;;;6.24;68.04
46045;BME280;31781;54.094;13.428;2023-02-14T04:57:50;103766.44;;;6.24;67.53
46045;BME280;31781;54.094;13.428;2023-02-14T04:59:52;103773.78;;;6.22;67.91
46045;BME280;31781;54.094;13.428;2023-02-14T05:01:55;103775.50;;;6.23;67.60
46045;BME280;31781;54.094;13.428;2023-02-14T05:03:56;103770.09;;;6.23;68.03
46045;BME280;31781;54.094;13.428;2023-02-14T05:05:58;103770.97;;;6.23;67.73
46045;BME280;31781;54.094;13.428;2023-02-14T05:08:00;103767.41;;;6.23;67.75
46045;BME280;31781;54.094;13.428;2023-02-14T05:10:02;103770.09;;;6.23;68.08
46045;BME280;31781;54.094;13.428;2023-02-14T05:12:04;103768.28;;;6.23;67.66
46045;BME280;31781;54.094;13.428;2023-02-14T05:14:06;103759.38;;;6.21;67.51
46045;BME280;31781;54.094;13.428;2023-02-14T05:16:08;103764.78;;;6.21;67.78
46045;BME280;31781;54.094;13.428;2023-02-14T05:18:11;103763.06;;;6.20;67.22
46045;BME280;31781;54.094;13.428;2023-02-14T05:20:13;103765.66;;;6.22;67.06
46045;BME280;31781;54.094;13.428;2023-02-14T05:22:15;103762.09;;;6.21;67.25
46045;BME280;31781;54.094;13.428;2023-02-14T05:24:19;103768.50;;;6.20;67.84
46045;BME280;31781;54.094;13.428;2023-02-14T05:26:20;103773.91;;;6.20;67.74
46045;BME280;31781;54.094;13.428;2023-02-14T05:28:22;103776.59;;;6.20;67.13
46045;BME280;31781;54.094;13.428;2023-02-14T05:30:24;103773.03;;;6.20;67.40
46045;BME280;31781;54.094;13.428;2023-02-14T05:32:26;103763.19;;;6.19;67.84
46045;BME280;31781;54.094;13.428;2023-02-14T05:34:29;103769.44;;;6.19;67.65
46045;BME280;31781;54.094;13.428;2023-02-14T05:36:31;103764.91;;;6.20;67.35
46045;BME280;31781;54.094;13.428;2023-02-14T05:38:33;103762.44;;;6.17;67.46
46045;BME280;31781;54.094;13.428;2023-02-14T05:40:34;103764.13;;;6.18;67.44
46045;BME280;31781;54.094;13.428;2023-02-14T05:42:36;103762.31;;;6.18;67.14
46045;BME280;31781;54.094;13.428;2023-02-14T05:44:38;103764.13;;;6.18;67.67
46045;BME280;31781;54.094;13.428;2023-02-14T05:46:39;103765.00;;;6.18;68.04
46045;BME280;31781;54.094;13.428;2023-02-14T05:48:41;103759.72;;;6.17;67.16
46045;BME280;31781;54.094;13.428;2023-02-14T05:50:44;103765.97;;;6.17;67.62
46045;BME280;31781;54.094;13.428;2023-02-14T05:52:46;103766.97;;;6.16;67.26
46045;BME280;31781;54.094;13.428;2023-02-14T05:54:48;103772.25;;;6.18;67.49
46045;BME280;31781;54.094;13.428;2023-02-14T05:56:50;103767.84;;;6.17;67.73
46045;BME280;31781;54.094;13.428;2023-02-14T05:58:52;103769.66;;;6.16;67.32
46045;BME280;31781;54.094;13.428;2023-02-14T06:00:55;103768.81;;;6.16;67.28
46045;BME280;31781;54.094;13.428;2023-02-14T06:02:57;103777.78;;;6.16;67.17
46045;BME280;31781;54.094;13.428;2023-02-14T06:04:58;103770.63;;;6.15;67.75
46045;BME280;31781;54.094;13.428;2023-02-14T06:07:02;103767.94;;;6.15;68.33
46045;BME280;31781;54.094;13.428;2023-02-14T06:09:04;103777.88;;;6.15;67.55
46045;BME280;31781;54.094;13.428;2023-02-14T06:11:05;103778.75;;;6.15;67.49
46045;BME280;31781;54.094;13.428;2023-02-14T06:13:07;103775.16;;;6.15;67.48
46045;BME280;31781;54.094;13.428;2023-02-14T06:15:09;103777.88;;;6.15;67.57
46045;BME280;31781;54.094;13.428;2023-02-14T06:17:11;103778.75;;;6.15;66.94
46045;BME280;31781;54.094;13.428;2023-02-14T06:19:13;103785.13;;;6.14;67.85
46045;BME280;31781;54.094;13.428;2023-02-14T06:21:14;103791.38;;;6.15;67.45
46045;BME280;31781;54.094;13.428;2023-02-14T06:23:17;103786.84;;;6.15;67.24
46045;BME280;31781;54.094;13.428;2023-02-14T06:25:19;103786.94;;;6.14;67.31
46045;BME280;31781;54.094;13.428;2023-02-14T06:27:20;103786.09;;;6.13;67.34
46045;BME280;31781;54.094;13.428;2023-02-14T06:29:23;103795.06;;;6.14;67.54
46045;BME280;31781;54.094;13.428;2023-02-14T06:31:25;103805.03;;;6.13;67.19
46045;BME280;31781;54.094;13.428;2023-02-14T06:33:27;103796.91;;;6.13;67.53
46045;BME280;31781;54.094;13.428;2023-02-14T06:35:28;103796.91;;;6.13;66.77
46045;BME280;31781;54.094;13.428;2023-02-14T06:37:30;103796.06;;;6.13;67.17
46045;BME280;31781;54.094;13.428;2023-02-14T06:39:33;103799.63;;;6.13;67.47
46045;BME280;31781;54.094;13.428;2023-02-14T06:41:35;103801.47;;;6.13;66.98
46045;BME280;31781;54.094;13.428;2023-02-14T06:43:36;103790.53;;;6.14;67.50
46045;BME280;31781;54.094;13.428;2023-02-14T06:45:39;103795.06;;;6.14;67.29
46045;BME280;31781;54.094;13.428;2023-02-14T06:47:41;103796.78;;;6.15;66.76
46045;BME280;31781;54.094;13.428;2023-02-14T06:49:43;103791.38;;;6.15;66.90
46045;BME280;31781;54.094;13.428;2023-02-14T06:51:44;103788.69;;;6.15;66.84
46045;BME280;31781;54.094;13.428;2023-02-14T06:53:46;103791.38;;;6.15;67.01
46045;BME280;31781;54.094;13.428;2023-02-14T06:55:49;103788.69;;;6.15;67.11
46045;BME280;31781;54.094;13.428;2023-02-14T06:57:51;103787.72;;;6.16;67.16
46045;BME280;31781;54.094;13.428;2023-02-14T06:59:52;103800.28;;;6.17;67.27
46045;BME280;31781;54.094;13.428;2023-02-14T07:01:54;103788.59;;;6.16;66.72
46045;BME280;31781;54.094;13.428;2023-02-14T07:03:56;103788.47;;;6.18;66.64
46045;BME280;31781;54.094;13.428;2023-02-14T07:05:58;103792.16;;;6.17;67.30
46045;BME280;31781;54.094;13.428;2023-02-14T07:08:00;103797.56;;;6.17;66.91
46045;BME280;31781;54.094;13.428;2023-02-14T07:10:03;103788.47;;;6.18;67.52
46045;BME280;31781;54.094;13.428;2023-02-14T07:12:06;103790.22;;;6.19;67.27
46045;BME280;31781;54.094;13.428;2023-02-14T07:14:08;103792.03;;;6.18;66.88
46045;BME280;31781;54.094;13.428;2023-02-14T07:16:10;103792.03;;;6.18;67.34
46045;BME280;31781;54.094;13.428;2023-02-14T07:18:12;103791.19;;;6.18;67.14
46045;BME280;31781;54.094;13.428;2023-02-14T07:20:13;103793.88;;;6.18;66.96
46045;BME280;31781;54.094;13.428;2023-02-14T07:22:15;103794.75;;;6.18;67.08
46045;BME280;31781;54.094;13.428;2023-02-14T07:24:17;103791.31;;;6.16;67.01
46045;BME280;31781;54.094;13.428;2023-02-14T07:26:19;103786.75;;;6.17;66.80
46045;BME280;31781;54.094;13.428;2023-02-14T07:28:22;103790.22;;;6.19;67.23
46045;BME280;31781;54.094;13.428;2023-02-14T07:30:23;103789.25;;;6.20;66.94
46045;BME280;31781;54.094;13.428;2023-02-14T07:32:25;103792.91;;;6.19;66.69
46045;BME280;31781;54.094;13.428;2023-02-14T07:34:27;103790.22;;;6.19;66.62
46045;BME280;31781;54.094;13.428;2023-02-14T07:36:29;103787.41;;;6.20;66.79
46045;BME280;31781;54.094;13.428;2023-02-14T07:38:31;103788.38;;;6.19;66.35
46045;BME280;31781;54.094;13.428;2023-02-14T07:40:33;103784.72;;;6.20;66.88
46045;BME280;31781;54.094;13.428;2023-02-14T07:42:34;103791.81;;;6.21;67.13
46045;BME280;31781;54.094;13.428;2023-02-14T07:44:38;103785.44;;;6.22;66.86
46045;BME280;31781;54.094;13.428;2023-02-14T07:46:39;103788.06;;;6.24;66.69
46045;BME280;31781;54.094;13.428;2023-02-14T07:48:41;103790.66;;;6.25;66.37
46045;BME280;31781;54.094;13.428;2023-02-14T07:50:43;103781.78;;;6.23;66.49
46045;BME280;31781;54.094;13.428;2023-02-14T07:52:44;103789.69;;;6.26;66.35
46045;BME280;31781;54.094;13.428;2023-02-14T07:54:46;103794.13;;;6.27;66.67
46045;BME280;31781;54.094;13.428;2023-02-14T07:56:48;103789.69;;;6.26;66.07
46045;BME280;31781;54.094;13.428;2023-02-14T07:58:49;103794.88;;;6.29;65.96
46045;BME280;31781;54.094;13.428;2023-02-14T08:00:53;103797.47;;;6.31;66.23
46045;BME280;31781;54.094;13.428;2023-02-14T08:02:55;103803.75;;;6.31;65.51
46045;BME280;31781;54.094;13.428;2023-02-14T08:04:56;103808.16;;;6.32;65.69
46045;BME280;31781;54.094;13.428;2023-02-14T08:06:58;103797.34;;;6.32;65.22
46045;BME280;31781;54.094;13.428;2023-02-14T08:09:00;103805.38;;;6.34;65.17
46045;BME280;31781;54.094;13.428;2023-02-14T08:11:02;103807.97;;;6.35;65.47
46045;BME280;31781;54.094;13.428;2023-02-14T08:13:04;103815.22;;;6.35;65.09
46045;BME280;31781;54.094;13.428;2023-02-14T08:15:06;103812.38;;;6.36;65.19
46045;BME280;31781;54.094;13.428;2023-02-14T08:17:12;103816.94;;;6.36;65.70
46045;BME280;31781;54.094;13.428;2023-02-14T08:19:13;103813.16;;;6.39;65.48
46045;BME280;31781;54.094;13.428;2023-02-14T08:21:15;103813.16;;;6.39;65.59
46045;BME280;31781;54.094;13.428;2023-02-14T08:23:17;103816.63;;;6.41;65.19
46045;BME280;31781;54.094;13.428;2023-02-14T08:25:19;103817.50;;;6.41;64.96
46045;BME280;31781;54.094;13.428;2023-02-14T08:27:21;103823.63;;;6.43;65.61
46045;BME280;31781;54.094;13.428;2023-02-14T08:29:23;103819.22;;;6.42;65.23
46045;BME280;31781;54.094;13.428;2023-02-14T08:31:26;103821.72;;;6.45;65.05
46045;BME280;31781;54.094;13.428;2023-02-14T08:33:38;103813.50;;;6.47;64.79
46045;BME280;31781;54.094;13.428;2023-02-14T08:35:40;103816.22;;;6.47;64.93
46045;BME280;31781;54.094;13.428;2023-02-14T08:37:42;103818.78;;;6.48;64.74
46045;BME280;31781;54.094;13.428;2023-02-14T08:39:44;103816.84;;;6.50;64.95
46045;BME280;31781;54.094;13.428;2023-02-14T08:41:46;103820.41;;;6.51;64.74
46045;BME280;31781;54.094;13.428;2023-02-14T08:43:48;103815.75;;;6.53;65.23
46045;BME280;31781;54.094;13.428;2023-02-14T08:45:51;103817.50;;;6.54;64.61
46045;BME280;31781;54.094;13.428;2023-02-14T08:47:52;103820.00;;;6.57;64.35
46045;BME280;31781;54.094;13.428;2023-02-14T08:49:55;103817.16;;;6.58;64.67
46045;BME280;31781;54.094;13.428;2023-02-14T08:51:57;103819.78;;;6.60;64.12
46045;BME280;31781;54.094;13.428;2023-02-14T08:53:59;103825.19;;;6.60;63.67
46045;BME280;31781;54.094;13.428;2023-02-14T08:56:01;103832.34;;;6.61;64.15
46045;BME280;31781;54.094;13.428;2023-02-14T08:58:04;103826.91;;;6.61;64.28
46045;BME280;31781;54.094;13.428;2023-02-14T09:00:07;103824.97;;;6.63;64.62
46045;BME280;31781;54.094;13.428;2023-02-14T09:02:11;103815.00;;;6.63;64.67
46045;BME280;31781;54.094;13.428;2023-02-14T09:04:13;103813.91;;;6.66;64.81
46045;BME280;31781;54.094;13.428;2023-02-14T09:06:16;103819.22;;;6.67;64.42
46045;BME280;31781;54.094;13.428;2023-02-14T09:08:18;103822.69;;;6.69;64.63
46045;BME280;31781;54.094;13.428;2023-02-14T09:10:20;103823.44;;;6.71;64.58
46045;BME280;31781;54.094;13.428;2023-02-14T09:12:21;103830.47;;;6.74;64.41
46045;BME280;31781;54.094;13.428;2023-02-14T09:14:23;103826.81;;;6.75;64.40
46045;BME280;31781;54.094;13.428;2023-02-14T09:16:25;103825.84;;;6.76;63.75
46045;BME280;31781;54.094;13.428;2023-02-14T09:18:27;103828.53;;;6.76;63.70
46045;BME280;31781;54.094;13.428;2023-02-14T09:20:28;103830.25;;;6.77;64.40
46045;BME280;31781;54.094;13.428;2023-02-14T09:22:31;103826.56;;;6.78;63.84
46045;BME280;31781;54.094;13.428;2023-02-14T09:24:35;103836.44;;;6.79;64.00
46045;BME280;31781;54.094;13.428;2023-02-14T09:26:37;103831.91;;;6.79;64.00
46045;BME280;31781;54.094;13.428;2023-02-14T09:28:38;103831.75;;;6.81;63.58
46045;BME280;31781;54.094;13.428;2023-02-14T09:30:40;103829.94;;;6.81;63.88
46045;BME280;31781;54.094;13.428;2023-02-14T09:32:41;103831.66;;;6.82;63.99
46045;BME280;31781;54.094;13.428;2023-02-14T09:34:43;103829.59;;;6.86;63.56
46045;BME280;31781;54.094;13.428;2023-02-14T09:36:45;103835.66;;;6.90;64.40
46045;BME280;31781;54.094;13.428;2023-02-14T09:38:48;103832.97;;;6.90;63.62
46045;BME280;31781;54.094;13.428;2023-02-14T09:40:50;103830.81;;;6.95;64.10
46045;BME280;31781;54.094;13.428;2023-02-14T09:42:57;103833.28;;;6.98;63.99
46045;BME280;31781;54.094;13.428;2023-02-14T09:45:05;103835.75;;;7.01;63.98
46045;BME280;31781;54.094;13.428;2023-02-14T09:47:18;103827.41;;;7.04;63.51
46045;BME280;31781;54.094;13.428;2023-02-14T09:49:28;103828.38;;;7.03;63.91
46045;BME280;31781;54.094;13.428;2023-02-14T09:51:31;103835.44;;;7.05;62.54
46045;BME280;31781;54.094;13.428;2023-02-14T09:53:35;103830.88;;;7.06;63.18
46045;BME280;31781;54.094;13.428;2023-02-14T09:55:44;103829.78;;;7.08;63.54
46045;BME280;31781;54.094;13.428;2023-02-14T09:58:00;103824.25;;;7.10;63.45
46045;BME280;31781;54.094;13.428;2023-02-14T10:00:15;103831.31;;;7.12;63.39
46045;BME280;31781;54.094;13.428;2023-02-14T10:02:30;103829.34;;;7.14;63.27
46045;BME280;31781;54.094;13.428;2023-02-14T10:04:38;103832.91;;;7.15;62.79
46045;BME280;31781;54.094;13.428;2023-02-14T10:06:48;103840.06;;;7.16;63.23
46045;BME280;31781;54.094;13.428;2023-02-14T10:08:57;103843.50;;;7.18;63.06
46045;BME280;31781;54.094;13.428;2023-02-14T10:11:06;103835.28;;;7.19;62.84
46045;BME280;31781;54.094;13.428;2023-02-14T10:13:14;103828.78;;;7.22;63.40
46045;BME280;31781;54.094;13.428;2023-02-14T10:15:22;103839.38;;;7.25;63.06
46045;BME280;31781;54.094;13.428;2023-02-14T10:17:34;103841.03;;;7.27;63.87
46045;BME280;31781;54.094;13.428;2023-02-14T10:19:40;103834.50;;;7.30;62.93
46045;BME280;31781;54.094;13.428;2023-02-14T10:21:48;103832.44;;;7.33;63.32
46045;BME280;31781;54.094;13.428;2023-02-14T10:23:57;103827.66;;;7.37;63.30
46045;BME280;31781;54.094;13.428;2023-02-14T10:26:05;103828.41;;;7.39;63.16
46045;BME280;31781;54.094;13.428;2023-02-14T10:28:11;103829.16;;;7.41;62.53
46045;BME280;31781;54.094;13.428;2023-02-14T10:30:18;103838.03;;;7.43;62.42
46045;BME280;31781;54.094;13.428;2023-02-14T10:32:26;103823.41;;;7.46;62.48
46045;BME280;31781;54.094;13.428;2023-02-14T10:34:36;103816.03;;;7.48;63.10
46045;BME280;31781;54.094;13.428;2023-02-14T10:36:54;103811.22;;;7.51;63.12
46045;BME280;31781;54.094;13.428;2023-02-14T10:39:05;103820.34;;;7.50;62.53
46045;BME280;31781;54.094;13.428;2023-02-14T10:41:19;103819.25;;;7.53;63.28
46045;BME280;31781;54.094;13.428;2023-02-14T10:43:32;103813.84;;;7.53;63.40
46045;BME280;31781;54.094;13.428;2023-02-14T10:45:40;103816.56;;;7.53;61.73
46045;BME280;31781;54.094;13.428;2023-02-14T10:47:51;103811.00;;;7.54;62.27
46045;BME280;31781;54.094;13.428;2023-02-14T10:50:00;103808.28;;;7.54;62.28
46045;BME280;31781;54.094;13.428;2023-02-14T10:52:12;103817.28;;;7.55;62.25
46045;BME280;31781;54.094;13.428;2023-02-14T10:54:19;103819.03;;;7.56;61.95